Sandflaesa — LM5781 — position and weather

sailwx.info

Track history (hours):
 
Tides and Currents Weather Stations Pressure Air Temp Water Temp Dewpoint Dewpoint Depression Visibility Wind Speed Wind Dir Waves Ship Positions

Sandflaesa

Last reported at 2017-Aug-14 02:16 UTC. Time now 2017-Aug-24 07:00 UTC.
Position N 66°01' E 012°38'.
Warning: this ship's position is 10 days out of date.

Length 11 m.

Type: Fishing. MMSI: 257304820.

Date/timePositionNaut miles runAvg speedWind from/ knotsBaromVisibWave heightAir tempDewpointWater temp
2017-Aug-14 02:16N 66°01' E 012°38'0 0.0
2017-Aug-13 12:04N 66°01' E 012°38'0 0.0
2017-Aug-13 11:40N 66°01' E 012°38'0 0.0
2017-Aug-13 04:58N 66°01' E 012°38'0 0.0
2017-Aug-12 16:10N 66°01' E 012°38'0 0.0
2017-Aug-12 04:52N 66°01' E 012°38'0 0.0
2017-Aug-12 03:49N 66°01' E 012°38'0 0.0
2017-Aug-12 03:19N 66°01' E 012°38'0 0.0
2017-Aug-11 05:37N 66°01' E 012°38'0 0.0
2017-Aug-11 05:19N 66°01' E 012°38'0 0.0
2017-Aug-10 23:37N 66°01' E 012°38'0 0.0
2017-Aug-10 18:48N 66°01' E 012°38'1 3.6
2017-Aug-10 18:30N 66°02' E 012°39'3 6.6
2017-Aug-10 18:00N 66°06' E 012°40'4 7.0
2017-Aug-10 17:30N 66°09' E 012°40'3 6.5
2017-Aug-10 16:59N 66°12' E 012°40'3 6.8
2017-Aug-10 16:30N 66°16' E 012°40'3 6.9
2017-Aug-10 16:00N 66°19' E 012°40'4 7.2
2017-Aug-10 15:30N 66°23' E 012°42'4 7.5
2017-Aug-10 15:00N 66°26' E 012°39'4 7.3
2017-Aug-10 14:29N 66°30' E 012°37'4 7.2
2017-Aug-10 13:57N 66°34' E 012°36'1 1.2
2017-Aug-10 13:30N 66°34' E 012°36'4 7.6
2017-Aug-10 13:00N 66°34' E 012°27'4 7.5
2017-Aug-10 12:29N 66°35' E 012°17'1 2.7
2017-Aug-10 11:59N 66°35' E 012°14'0 0.0
2017-Aug-10 11:29N 66°35' E 012°14'0 0.0
2017-Aug-10 10:59N 66°35' E 012°14'0 0.0
2017-Aug-10 10:29N 66°35' E 012°14'0 0.0
2017-Aug-10 09:59N 66°35' E 012°14'0 0.0
2017-Aug-10 09:29N 66°35' E 012°14'0 0.0
2017-Aug-10 08:59N 66°35' E 012°14'0 0.0
2017-Aug-10 08:29N 66°35' E 012°14'0 0.0
2017-Aug-10 07:59N 66°35' E 012°14'0 0.0
2017-Aug-10 07:29N 66°35' E 012°14'0 0.0
2017-Aug-10 06:59N 66°35' E 012°14'0 0.0
2017-Aug-10 06:29N 66°35' E 012°14'0 0.0
2017-Aug-10 05:59N 66°35' E 012°14'0 0.0
2017-Aug-10 05:29N 66°35' E 012°14'0 0.0
2017-Aug-10 04:59N 66°35' E 012°14'0 0.0
2017-Aug-10 04:29N 66°35' E 012°14'0 0.0
2017-Aug-10 03:59N 66°35' E 012°14'0 0.0
2017-Aug-10 03:29N 66°35' E 012°14'0 0.0
2017-Aug-10 02:59N 66°35' E 012°14'0 0.0
2017-Aug-10 02:29N 66°35' E 012°14'0 0.0
2017-Aug-10 01:59N 66°35' E 012°14'0 0.0
2017-Aug-10 01:29N 66°35' E 012°14'0 0.0
2017-Aug-10 00:59N 66°35' E 012°14'0 0.0
2017-Aug-10 00:29N 66°35' E 012°14'0 0.0
2017-Aug-09 23:59N 66°35' E 012°14'0 0.0
2017-Aug-09 23:29N 66°35' E 012°14'0 0.0
2017-Aug-09 22:59N 66°35' E 012°14'0 0.0
2017-Aug-09 22:29N 66°35' E 012°14'0 0.0
2017-Aug-09 21:59N 66°35' E 012°14'0 0.0
2017-Aug-09 21:29N 66°35' E 012°14'0 0.0
2017-Aug-09 20:59N 66°35' E 012°14'0 0.0
2017-Aug-09 20:29N 66°35' E 012°14'0 0.0
2017-Aug-09 19:59N 66°35' E 012°14'0 0.0
2017-Aug-09 19:29N 66°35' E 012°14'0 0.0
2017-Aug-09 18:59N 66°35' E 012°14'0 0.0
2017-Aug-09 18:29N 66°35' E 012°14'1 2.9
2017-Aug-09 18:00N 66°37' E 012°15'3 5.1
2017-Aug-09 17:29N 66°39' E 012°19'0 0.1
2017-Aug-09 17:00N 66°38' E 012°19'1 1.3
2017-Aug-09 16:30N 66°39' E 012°18'0 0.3
2017-Aug-09 15:58N 66°39' E 012°18'4 1.4
2017-Aug-09 13:12N 66°37' E 012°11'2 7.6
2017-Aug-09 13:00N 66°35' E 012°13'0 0.8
2017-Aug-09 12:30N 66°35' E 012°14'0 0.0
2017-Aug-09 12:00N 66°35' E 012°14'0 0.0
2017-Aug-09 11:30N 66°35' E 012°14'0 0.2
2017-Aug-09 10:56N 66°35' E 012°13'1 1.6
2017-Aug-09 10:30N 66°36' E 012°12'1 0.2
2017-Aug-09 04:10N 66°35' E 012°10'1 7.6
2017-Aug-09 04:00N 66°35' E 012°13'0 0.7
2017-Aug-09 03:28N 66°35' E 012°14'0 0.0
2017-Aug-09 02:58N 66°35' E 012°14'0 0.0
2017-Aug-09 02:28N 66°35' E 012°14'0 0.0
2017-Aug-09 01:58N 66°35' E 012°14'0 0.0
2017-Aug-09 01:28N 66°35' E 012°14'0 0.0
2017-Aug-09 00:58N 66°35' E 012°14'0 0.0
2017-Aug-09 00:28N 66°35' E 012°14'0 0.0
2017-Aug-08 23:58N 66°35' E 012°14'0 0.0
2017-Aug-08 23:28N 66°35' E 012°14'0 0.0
2017-Aug-08 22:58N 66°35' E 012°14'0 0.0
2017-Aug-08 22:30N 66°35' E 012°14'0 0.0
2017-Aug-08 22:00N 66°35' E 012°14'0 0.0
2017-Aug-08 21:30N 66°35' E 012°14'0 0.0
2017-Aug-08 21:00N 66°35' E 012°14'0 0.0
2017-Aug-08 20:30N 66°35' E 012°14'0 0.0
2017-Aug-08 20:00N 66°35' E 012°14'0 0.0
2017-Aug-08 19:30N 66°35' E 012°14'0 0.0
2017-Aug-08 19:00N 66°35' E 012°14'0 0.0
2017-Aug-08 18:30N 66°35' E 012°14'0 1.0
2017-Aug-08 18:00N 66°35' E 012°12'3 2.3
2017-Aug-08 16:48N 66°35' E 012°06'2 3.9
2017-Aug-08 16:25N 66°35' E 012°09'2 3.8
2017-Aug-08 15:58N 66°35' E 012°14'0 0.0
2017-Aug-08 15:28N 66°35' E 012°14'0 0.0
2017-Aug-08 14:58N 66°35' E 012°14'0 0.0
2017-Aug-08 14:28N 66°35' E 012°14'0 0.0
2017-Aug-08 13:58N 66°35' E 012°14'0 0.0
2017-Aug-08 13:29N 66°35' E 012°14'0 0.0
2017-Aug-08 12:59N 66°35' E 012°14'0 0.0
2017-Aug-08 12:29N 66°35' E 012°14'0 0.2
2017-Aug-08 12:00N 66°35' E 012°13'0 0.0
2017-Aug-08 11:30N 66°35' E 012°13'0 0.0
2017-Aug-08 11:00N 66°35' E 012°13'2 4.6
2017-Aug-08 10:30N 66°36' E 012°19'3 6.7
2017-Aug-08 10:00N 66°37' E 012°27'1 2.4
2017-Aug-08 09:29N 66°36' E 012°25'2 3.6
2017-Aug-08 09:00N 66°34' E 012°25'0 0.9
2017-Aug-08 08:30N 66°34' E 012°25'1 1.4
2017-Aug-08 08:00N 66°33' E 012°24'3 5.4
2017-Aug-08 07:30N 66°31' E 012°20'2 3.8
2017-Aug-08 06:59N 66°29' E 012°18'1 2.1
2017-Aug-08 06:30N 66°30' E 012°18'0 0.6
2017-Aug-08 06:00N 66°30' E 012°17'0 0.5
2017-Aug-08 05:30N 66°31' E 012°18'3 5.9
2017-Aug-08 04:59N 66°34' E 012°16'2 3.5
2017-Aug-08 04:29N 66°35' E 012°14'0 0.0
2017-Aug-08 03:59N 66°35' E 012°14'0 0.0
2017-Aug-08 03:29N 66°35' E 012°14'0 0.0
2017-Aug-08 02:59N 66°35' E 012°14'0 0.0
2017-Aug-08 02:29N 66°35' E 012°14'0 0.0
2017-Aug-08 01:59N 66°35' E 012°14'0 0.0
2017-Aug-08 01:29N 66°35' E 012°14'0 0.0
2017-Aug-08 00:59N 66°35' E 012°14'0 0.0
2017-Aug-08 00:29N 66°35' E 012°14'0 0.0
2017-Aug-07 23:59N 66°35' E 012°14'0 0.0
2017-Aug-07 23:29N 66°35' E 012°14'0 0.0
2017-Aug-07 22:59N 66°35' E 012°14'0 0.0
2017-Aug-07 22:29N 66°35' E 012°14'0 0.0
2017-Aug-07 21:59N 66°35' E 012°14'0 0.0
2017-Aug-07 21:29N 66°35' E 012°14'0 0.0
2017-Aug-07 20:59N 66°35' E 012°14'1 2.9
2017-Aug-07 20:29N 66°34' E 012°15'3 6.8
2017-Aug-07 20:00N 66°31' E 012°18'2 3.1
2017-Aug-07 19:30N 66°29' E 012°18'1 2.3
2017-Aug-07 18:59N 66°30' E 012°18'2 3.8
2017-Aug-07 18:30N 66°32' E 012°18'4 7.8
2017-Aug-07 17:59N 66°35' E 012°12'1 0.7
2017-Aug-07 16:29N 66°36' E 012°10'2 3.3
2017-Aug-07 15:58N 66°35' E 012°14'0 0.0
2017-Aug-07 15:28N 66°35' E 012°14'0 0.0
2017-Aug-07 14:58N 66°35' E 012°14'0 0.0
2017-Aug-07 14:30N 66°35' E 012°14'0 0.0
2017-Aug-07 14:00N 66°35' E 012°14'0 0.0
2017-Aug-07 13:31N 66°35' E 012°14'0 0.0
2017-Aug-07 13:00N 66°35' E 012°14'0 0.0
2017-Aug-07 12:30N 66°35' E 012°14'1 1.4
2017-Aug-07 12:00N 66°35' E 012°12'4 8.0
2017-Aug-07 11:31N 66°31' E 012°07'2 3.1
2017-Aug-07 11:00N 66°30' E 012°06'0 0.9
2017-Aug-07 10:30N 66°30' E 012°07'4 7.7
2017-Aug-07 10:00N 66°33' E 012°12'2 3.6
2017-Aug-07 09:29N 66°35' E 012°14'0 0.0
2017-Aug-07 08:59N 66°35' E 012°14'0 0.2
2017-Aug-07 08:28N 66°35' E 012°13'1 1.8
2017-Aug-07 08:00N 66°36' E 012°12'2 4.6
2017-Aug-07 07:27N 66°38' E 012°08'2 0.7
2017-Aug-07 05:00N 66°37' E 012°11'2 3.3
2017-Aug-07 04:28N 66°35' E 012°14'0 0.0
2017-Aug-07 03:58N 66°35' E 012°14'0 0.0
2017-Aug-07 03:28N 66°35' E 012°14'0 0.0
2017-Aug-07 02:58N 66°35' E 012°14'0 0.0
2017-Aug-07 02:29N 66°35' E 012°14'0 0.0
2017-Aug-07 01:59N 66°35' E 012°14'0 0.0
2017-Aug-07 01:29N 66°35' E 012°14'0 0.0
2017-Aug-07 00:59N 66°35' E 012°14'0 0.0
2017-Aug-07 00:29N 66°35' E 012°14'0 0.0
2017-Aug-06 23:59N 66°35' E 012°14'0 0.0
2017-Aug-06 23:29N 66°35' E 012°14'0 0.0
2017-Aug-06 22:59N 66°35' E 012°14'0 0.0
2017-Aug-06 22:29N 66°35' E 012°14'0 0.0
2017-Aug-06 21:59N 66°35' E 012°14'0 0.0
2017-Aug-06 21:29N 66°35' E 012°14'0 0.0
2017-Aug-06 20:59N 66°35' E 012°14'0 0.0
2017-Aug-06 20:29N 66°35' E 012°14'0 0.0
2017-Aug-06 19:56N 66°35' E 012°14'1 1.8
2017-Aug-06 19:29N 66°36' E 012°12'1 0.9
2017-Aug-06 18:17N 66°37' E 012°11'2 6.2
2017-Aug-06 18:00N 66°35' E 012°13'0 0.2
2017-Aug-06 17:28N 66°35' E 012°14'0 0.0
2017-Aug-06 16:58N 66°35' E 012°14'0 0.0
2017-Aug-06 16:28N 66°35' E 012°14'0 0.0
2017-Aug-06 15:58N 66°35' E 012°14'0 0.0
2017-Aug-06 15:28N 66°35' E 012°14'0 0.0
2017-Aug-06 14:58N 66°35' E 012°14'0 0.0
2017-Aug-06 14:28N 66°35' E 012°14'0 0.0
2017-Aug-06 13:58N 66°35' E 012°14'0 0.0
2017-Aug-06 13:28N 66°35' E 012°14'0 0.0
2017-Aug-06 12:58N 66°35' E 012°14'0 0.0
2017-Aug-06 12:28N 66°35' E 012°14'0 0.0
2017-Aug-06 11:58N 66°35' E 012°14'0 0.0
2017-Aug-06 11:29N 66°35' E 012°14'0 0.0
2017-Aug-06 10:59N 66°35' E 012°14'0 0.0
2017-Aug-06 10:28N 66°35' E 012°14'0 0.0
2017-Aug-06 09:59N 66°35' E 012°14'0 0.0
2017-Aug-06 09:29N 66°35' E 012°14'0 0.0
2017-Aug-06 08:59N 66°35' E 012°14'0 0.0
2017-Aug-06 08:29N 66°35' E 012°14'0 0.0
2017-Aug-06 07:59N 66°35' E 012°14'0 0.0
2017-Aug-06 07:29N 66°35' E 012°14'0 0.0
2017-Aug-06 06:59N 66°35' E 012°14'0 0.0
2017-Aug-06 06:29N 66°35' E 012°14'0 0.0
2017-Aug-06 05:59N 66°35' E 012°14'0 0.0
2017-Aug-06 05:29N 66°35' E 012°14'0 0.0
2017-Aug-06 04:59N 66°35' E 012°14'0 0.0
2017-Aug-06 04:29N 66°35' E 012°14'0 0.0
2017-Aug-06 03:59N 66°35' E 012°14'0 0.0
2017-Aug-06 03:29N 66°35' E 012°14'0 0.0
2017-Aug-06 02:59N 66°35' E 012°14'0 0.0
2017-Aug-06 02:29N 66°35' E 012°14'0 0.0
2017-Aug-06 01:59N 66°35' E 012°14'0 0.0
2017-Aug-06 01:29N 66°35' E 012°14'0 0.0
2017-Aug-06 00:59N 66°35' E 012°14'0 0.0
2017-Aug-06 00:29N 66°35' E 012°14'0 0.0
2017-Aug-05 23:59N 66°35' E 012°14'0 0.0
2017-Aug-05 23:29N 66°35' E 012°14'0 0.0
2017-Aug-05 22:58N 66°35' E 012°14'0 0.0
2017-Aug-05 22:28N 66°35' E 012°14'0 0.0
2017-Aug-05 21:58N 66°35' E 012°14'0 0.0
2017-Aug-05 21:28N 66°35' E 012°14'0 0.0
2017-Aug-05 20:58N 66°35' E 012°14'0 0.0
2017-Aug-05 20:28N 66°35' E 012°14'0 0.0
2017-Aug-05 19:58N 66°35' E 012°14'0 0.0
2017-Aug-05 19:28N 66°35' E 012°14'0 0.0
2017-Aug-05 18:58N 66°35' E 012°14'0 0.0
2017-Aug-05 18:28N 66°35' E 012°14'0 0.0
2017-Aug-05 17:58N 66°35' E 012°14'0 0.0
2017-Aug-05 17:28N 66°35' E 012°14'0 0.0
2017-Aug-05 16:58N 66°35' E 012°14'0 0.0
2017-Aug-05 16:28N 66°35' E 012°14'0 0.0
2017-Aug-05 15:58N 66°35' E 012°14'0 0.0
2017-Aug-05 15:28N 66°35' E 012°14'0 0.0
2017-Aug-05 14:58N 66°35' E 012°14'0 0.9
2017-Aug-05 14:30N 66°35' E 012°14'4 7.8
2017-Aug-05 14:00N 66°34' E 012°24'4 7.9
2017-Aug-05 13:30N 66°34' E 012°34'1 2.5
2017-Aug-05 12:58N 66°34' E 012°37'1 1.8
2017-Aug-05 12:29N 66°34' E 012°35'4 7.9
2017-Aug-05 12:00N 66°34' E 012°26'0 0.7
2017-Aug-05 11:30N 66°34' E 012°25'2 4.8
2017-Aug-05 11:00N 66°36' E 012°25'0 0.1
2017-Aug-05 10:30N 66°36' E 012°25'2 4.8
2017-Aug-05 10:00N 66°38' E 012°21'1 3.0
2017-Aug-05 09:30N 66°39' E 012°18'0 0.6
2017-Aug-05 08:58N 66°39' E 012°18'5 1.0
2017-Aug-05 04:21N 66°36' E 012°10'2 4.2
2017-Aug-05 03:59N 66°35' E 012°14'0 0.0
2017-Aug-05 03:29N 66°35' E 012°14'0 0.0
2017-Aug-05 02:59N 66°35' E 012°14'0 0.0
2017-Aug-05 02:29N 66°35' E 012°14'0 0.0
2017-Aug-05 01:59N 66°35' E 012°14'0 0.0
2017-Aug-05 01:29N 66°35' E 012°14'0 0.0
2017-Aug-05 00:59N 66°35' E 012°14'0 0.0
2017-Aug-05 00:29N 66°35' E 012°14'0 0.0
2017-Aug-04 23:57N 66°35' E 012°14'0 0.0
2017-Aug-04 23:30N 66°35' E 012°14'0 0.0
2017-Aug-04 23:00N 66°35' E 012°14'0 0.0
2017-Aug-04 22:30N 66°35' E 012°14'0 0.0
2017-Aug-04 22:00N 66°35' E 012°14'0 0.0
2017-Aug-04 21:30N 66°35' E 012°14'0 0.0
2017-Aug-04 21:00N 66°35' E 012°14'0 0.0
2017-Aug-04 20:30N 66°35' E 012°14'0 0.0
2017-Aug-04 20:00N 66°35' E 012°14'1 1.6
2017-Aug-04 19:30N 66°36' E 012°12'1 0.4
2017-Aug-04 17:10N 66°36' E 012°11'1 7.8
2017-Aug-04 16:59N 66°35' E 012°13'0 0.7
2017-Aug-04 16:29N 66°35' E 012°14'0 0.0
2017-Aug-04 15:59N 66°35' E 012°14'0 0.0
2017-Aug-04 15:29N 66°35' E 012°14'0 0.0
2017-Aug-04 14:59N 66°35' E 012°14'0 0.0
2017-Aug-04 13:59N 66°35' E 012°14'0 0.0
2017-Aug-04 13:29N 66°35' E 012°14'0 0.0
2017-Aug-04 12:59N 66°35' E 012°14'0 0.0
2017-Aug-04 12:29N 66°35' E 012°14'0 0.0
2017-Aug-04 11:59N 66°35' E 012°14'0 0.0
2017-Aug-04 11:29N 66°35' E 012°14'0 0.0
2017-Aug-04 10:59N 66°35' E 012°14'0 0.0
2017-Aug-04 10:29N 66°35' E 012°14'0 0.0
2017-Aug-04 10:00N 66°35' E 012°14'0 0.0
2017-Aug-04 09:30N 66°35' E 012°14'0 0.0
2017-Aug-04 09:00N 66°35' E 012°14'0 0.2
2017-Aug-04 08:30N 66°35' E 012°13'2 0.6
2017-Aug-04 05:20N 66°37' E 012°11'2 5.2
2017-Aug-04 05:00N 66°35' E 012°14'0 0.0
2017-Aug-04 04:30N 66°35' E 012°14'0 0.0
2017-Aug-04 04:00N 66°35' E 012°14'0 0.0
2017-Aug-04 03:30N 66°35' E 012°14'0 0.0
2017-Aug-04 03:00N 66°35' E 012°14'0 0.0
2017-Aug-04 02:30N 66°35' E 012°14'  
Track history (hours):
 
Tides and Currents Weather Stations Pressure Air Temp Water Temp Dewpoint Dewpoint Depression Visibility Wind Speed Wind Dir Waves Ship Positions

Sandflaesa

Last reported at 2017-Aug-14 02:16 UTC. Time now 2017-Aug-24 07:00 UTC.
Position N 66°01' E 012°38'.
Warning: this ship's position is 10 days out of date.

Length 11 m.

Type: Fishing. MMSI: 257304820.

Date/timePositionNaut miles runAvg speedWind from/ knotsBaromVisibWave heightAir tempDewpointWater temp
2017-Aug-14 02:16N 66°01' E 012°38'0 0.0
2017-Aug-13 12:04N 66°01' E 012°38'0 0.0
2017-Aug-13 11:40N 66°01' E 012°38'0 0.0
2017-Aug-13 04:58N 66°01' E 012°38'0 0.0
2017-Aug-12 16:10N 66°01' E 012°38'0 0.0
2017-Aug-12 04:52N 66°01' E 012°38'0 0.0
2017-Aug-12 03:49N 66°01' E 012°38'0 0.0
2017-Aug-12 03:19N 66°01' E 012°38'0 0.0
2017-Aug-11 05:37N 66°01' E 012°38'0 0.0
2017-Aug-11 05:19N 66°01' E 012°38'0 0.0
2017-Aug-10 23:37N 66°01' E 012°38'0 0.0
2017-Aug-10 18:48N 66°01' E 012°38'1 3.6
2017-Aug-10 18:30N 66°02' E 012°39'3 6.6
2017-Aug-10 18:00N 66°06' E 012°40'4 7.0
2017-Aug-10 17:30N 66°09' E 012°40'3 6.5
2017-Aug-10 16:59N 66°12' E 012°40'3 6.8
2017-Aug-10 16:30N 66°16' E 012°40'3 6.9
2017-Aug-10 16:00N 66°19' E 012°40'4 7.2
2017-Aug-10 15:30N 66°23' E 012°42'4 7.5
2017-Aug-10 15:00N 66°26' E 012°39'4 7.3
2017-Aug-10 14:29N 66°30' E 012°37'4 7.2
2017-Aug-10 13:57N 66°34' E 012°36'1 1.2
2017-Aug-10 13:30N 66°34' E 012°36'4 7.6
2017-Aug-10 13:00N 66°34' E 012°27'4 7.5
2017-Aug-10 12:29N 66°35' E 012°17'1 2.7
2017-Aug-10 11:59N 66°35' E 012°14'0 0.0
2017-Aug-10 11:29N 66°35' E 012°14'0 0.0
2017-Aug-10 10:59N 66°35' E 012°14'0 0.0
2017-Aug-10 10:29N 66°35' E 012°14'0 0.0
2017-Aug-10 09:59N 66°35' E 012°14'0 0.0
2017-Aug-10 09:29N 66°35' E 012°14'0 0.0
2017-Aug-10 08:59N 66°35' E 012°14'0 0.0
2017-Aug-10 08:29N 66°35' E 012°14'0 0.0
2017-Aug-10 07:59N 66°35' E 012°14'0 0.0
2017-Aug-10 07:29N 66°35' E 012°14'0 0.0
2017-Aug-10 06:59N 66°35' E 012°14'0 0.0
2017-Aug-10 06:29N 66°35' E 012°14'0 0.0
2017-Aug-10 05:59N 66°35' E 012°14'0 0.0
2017-Aug-10 05:29N 66°35' E 012°14'0 0.0
2017-Aug-10 04:59N 66°35' E 012°14'0 0.0
2017-Aug-10 04:29N 66°35' E 012°14'0 0.0
2017-Aug-10 03:59N 66°35' E 012°14'0 0.0
2017-Aug-10 03:29N 66°35' E 012°14'0 0.0
2017-Aug-10 02:59N 66°35' E 012°14'0 0.0
2017-Aug-10 02:29N 66°35' E 012°14'0 0.0
2017-Aug-10 01:59N 66°35' E 012°14'0 0.0
2017-Aug-10 01:29N 66°35' E 012°14'0 0.0
2017-Aug-10 00:59N 66°35' E 012°14'0 0.0
2017-Aug-10 00:29N 66°35' E 012°14'0 0.0
2017-Aug-09 23:59N 66°35' E 012°14'0 0.0
2017-Aug-09 23:29N 66°35' E 012°14'0 0.0
2017-Aug-09 22:59N 66°35' E 012°14'0 0.0
2017-Aug-09 22:29N 66°35' E 012°14'0 0.0
2017-Aug-09 21:59N 66°35' E 012°14'0 0.0
2017-Aug-09 21:29N 66°35' E 012°14'0 0.0
2017-Aug-09 20:59N 66°35' E 012°14'0 0.0
2017-Aug-09 20:29N 66°35' E 012°14'0 0.0
2017-Aug-09 19:59N 66°35' E 012°14'0 0.0
2017-Aug-09 19:29N 66°35' E 012°14'0 0.0
2017-Aug-09 18:59N 66°35' E 012°14'0 0.0
2017-Aug-09 18:29N 66°35' E 012°14'1 2.9
2017-Aug-09 18:00N 66°37' E 012°15'3 5.1
2017-Aug-09 17:29N 66°39' E 012°19'0 0.1
2017-Aug-09 17:00N 66°38' E 012°19'1 1.3
2017-Aug-09 16:30N 66°39' E 012°18'0 0.3
2017-Aug-09 15:58N 66°39' E 012°18'4 1.4
2017-Aug-09 13:12N 66°37' E 012°11'2 7.6
2017-Aug-09 13:00N 66°35' E 012°13'0 0.8
2017-Aug-09 12:30N 66°35' E 012°14'0 0.0
2017-Aug-09 12:00N 66°35' E 012°14'0 0.0
2017-Aug-09 11:30N 66°35' E 012°14'0 0.2
2017-Aug-09 10:56N 66°35' E 012°13'1 1.6
2017-Aug-09 10:30N 66°36' E 012°12'1 0.2
2017-Aug-09 04:10N 66°35' E 012°10'1 7.6
2017-Aug-09 04:00N 66°35' E 012°13'0 0.7
2017-Aug-09 03:28N 66°35' E 012°14'0 0.0
2017-Aug-09 02:58N 66°35' E 012°14'0 0.0
2017-Aug-09 02:28N 66°35' E 012°14'0 0.0
2017-Aug-09 01:58N 66°35' E 012°14'0 0.0
2017-Aug-09 01:28N 66°35' E 012°14'0 0.0
2017-Aug-09 00:58N 66°35' E 012°14'0 0.0
2017-Aug-09 00:28N 66°35' E 012°14'0 0.0
2017-Aug-08 23:58N 66°35' E 012°14'0 0.0
2017-Aug-08 23:28N 66°35' E 012°14'0 0.0
2017-Aug-08 22:58N 66°35' E 012°14'0 0.0
2017-Aug-08 22:30N 66°35' E 012°14'0 0.0
2017-Aug-08 22:00N 66°35' E 012°14'0 0.0
2017-Aug-08 21:30N 66°35' E 012°14'0 0.0
2017-Aug-08 21:00N 66°35' E 012°14'0 0.0
2017-Aug-08 20:30N 66°35' E 012°14'0 0.0
2017-Aug-08 20:00N 66°35' E 012°14'0 0.0
2017-Aug-08 19:30N 66°35' E 012°14'0 0.0
2017-Aug-08 19:00N 66°35' E 012°14'0 0.0
2017-Aug-08 18:30N 66°35' E 012°14'0 1.0
2017-Aug-08 18:00N 66°35' E 012°12'3 2.3
2017-Aug-08 16:48N 66°35' E 012°06'2 3.9
2017-Aug-08 16:25N 66°35' E 012°09'2 3.8
2017-Aug-08 15:58N 66°35' E 012°14'0 0.0
2017-Aug-08 15:28N 66°35' E 012°14'0 0.0
2017-Aug-08 14:58N 66°35' E 012°14'0 0.0
2017-Aug-08 14:28N 66°35' E 012°14'0 0.0
2017-Aug-08 13:58N 66°35' E 012°14'0 0.0
2017-Aug-08 13:29N 66°35' E 012°14'0 0.0
2017-Aug-08 12:59N 66°35' E 012°14'0 0.0
2017-Aug-08 12:29N 66°35' E 012°14'0 0.2
2017-Aug-08 12:00N 66°35' E 012°13'0 0.0
2017-Aug-08 11:30N 66°35' E 012°13'0 0.0
2017-Aug-08 11:00N 66°35' E 012°13'2 4.6
2017-Aug-08 10:30N 66°36' E 012°19'3 6.7
2017-Aug-08 10:00N 66°37' E 012°27'1 2.4
2017-Aug-08 09:29N 66°36' E 012°25'2 3.6
2017-Aug-08 09:00N 66°34' E 012°25'0 0.9
2017-Aug-08 08:30N 66°34' E 012°25'1 1.4
2017-Aug-08 08:00N 66°33' E 012°24'3 5.4
2017-Aug-08 07:30N 66°31' E 012°20'2 3.8
2017-Aug-08 06:59N 66°29' E 012°18'1 2.1
2017-Aug-08 06:30N 66°30' E 012°18'0 0.6
2017-Aug-08 06:00N 66°30' E 012°17'0 0.5
2017-Aug-08 05:30N 66°31' E 012°18'3 5.9
2017-Aug-08 04:59N 66°34' E 012°16'2 3.5
2017-Aug-08 04:29N 66°35' E 012°14'0 0.0
2017-Aug-08 03:59N 66°35' E 012°14'0 0.0
2017-Aug-08 03:29N 66°35' E 012°14'0 0.0
2017-Aug-08 02:59N 66°35' E 012°14'0 0.0
2017-Aug-08 02:29N 66°35' E 012°14'0 0.0
2017-Aug-08 01:59N 66°35' E 012°14'0 0.0
2017-Aug-08 01:29N 66°35' E 012°14'0 0.0
2017-Aug-08 00:59N 66°35' E 012°14'0 0.0
2017-Aug-08 00:29N 66°35' E 012°14'0 0.0
2017-Aug-07 23:59N 66°35' E 012°14'0 0.0
2017-Aug-07 23:29N 66°35' E 012°14'0 0.0
2017-Aug-07 22:59N 66°35' E 012°14'0 0.0
2017-Aug-07 22:29N 66°35' E 012°14'0 0.0
2017-Aug-07 21:59N 66°35' E 012°14'0 0.0
2017-Aug-07 21:29N 66°35' E 012°14'0 0.0
2017-Aug-07 20:59N 66°35' E 012°14'1 2.9
2017-Aug-07 20:29N 66°34' E 012°15'3 6.8
2017-Aug-07 20:00N 66°31' E 012°18'2 3.1
2017-Aug-07 19:30N 66°29' E 012°18'1 2.3
2017-Aug-07 18:59N 66°30' E 012°18'2 3.8
2017-Aug-07 18:30N 66°32' E 012°18'4 7.8
2017-Aug-07 17:59N 66°35' E 012°12'1 0.7
2017-Aug-07 16:29N 66°36' E 012°10'2 3.3
2017-Aug-07 15:58N 66°35' E 012°14'0 0.0
2017-Aug-07 15:28N 66°35' E 012°14'0 0.0
2017-Aug-07 14:58N 66°35' E 012°14'0 0.0
2017-Aug-07 14:30N 66°35' E 012°14'0 0.0
2017-Aug-07 14:00N 66°35' E 012°14'0 0.0
2017-Aug-07 13:31N 66°35' E 012°14'0 0.0
2017-Aug-07 13:00N 66°35' E 012°14'0 0.0
2017-Aug-07 12:30N 66°35' E 012°14'1 1.4
2017-Aug-07 12:00N 66°35' E 012°12'4 8.0
2017-Aug-07 11:31N 66°31' E 012°07'2 3.1
2017-Aug-07 11:00N 66°30' E 012°06'0 0.9
2017-Aug-07 10:30N 66°30' E 012°07'4 7.7
2017-Aug-07 10:00N 66°33' E 012°12'2 3.6
2017-Aug-07 09:29N 66°35' E 012°14'0 0.0
2017-Aug-07 08:59N 66°35' E 012°14'0 0.2
2017-Aug-07 08:28N 66°35' E 012°13'1 1.8
2017-Aug-07 08:00N 66°36' E 012°12'2 4.6
2017-Aug-07 07:27N 66°38' E 012°08'2 0.7
2017-Aug-07 05:00N 66°37' E 012°11'2 3.3
2017-Aug-07 04:28N 66°35' E 012°14'0 0.0
2017-Aug-07 03:58N 66°35' E 012°14'0 0.0
2017-Aug-07 03:28N 66°35' E 012°14'0 0.0
2017-Aug-07 02:58N 66°35' E 012°14'0 0.0
2017-Aug-07 02:29N 66°35' E 012°14'0 0.0
2017-Aug-07 01:59N 66°35' E 012°14'0 0.0
2017-Aug-07 01:29N 66°35' E 012°14'0 0.0
2017-Aug-07 00:59N 66°35' E 012°14'0 0.0
2017-Aug-07 00:29N 66°35' E 012°14'0 0.0
2017-Aug-06 23:59N 66°35' E 012°14'0 0.0
2017-Aug-06 23:29N 66°35' E 012°14'0 0.0
2017-Aug-06 22:59N 66°35' E 012°14'0 0.0
2017-Aug-06 22:29N 66°35' E 012°14'0 0.0
2017-Aug-06 21:59N 66°35' E 012°14'0 0.0
2017-Aug-06 21:29N 66°35' E 012°14'0 0.0
2017-Aug-06 20:59N 66°35' E 012°14'0 0.0
2017-Aug-06 20:29N 66°35' E 012°14'0 0.0
2017-Aug-06 19:56N 66°35' E 012°14'1 1.8
2017-Aug-06 19:29N 66°36' E 012°12'1 0.9
2017-Aug-06 18:17N 66°37' E 012°11'2 6.2
2017-Aug-06 18:00N 66°35' E 012°13'0 0.2
2017-Aug-06 17:28N 66°35' E 012°14'0 0.0
2017-Aug-06 16:58N 66°35' E 012°14'0 0.0
2017-Aug-06 16:28N 66°35' E 012°14'0 0.0
2017-Aug-06 15:58N 66°35' E 012°14'0 0.0
2017-Aug-06 15:28N 66°35' E 012°14'0 0.0
2017-Aug-06 14:58N 66°35' E 012°14'0 0.0
2017-Aug-06 14:28N 66°35' E 012°14'0 0.0
2017-Aug-06 13:58N 66°35' E 012°14'0 0.0
2017-Aug-06 13:28N 66°35' E 012°14'0 0.0
2017-Aug-06 12:58N 66°35' E 012°14'0 0.0
2017-Aug-06 12:28N 66°35' E 012°14'0 0.0
2017-Aug-06 11:58N 66°35' E 012°14'0 0.0
2017-Aug-06 11:29N 66°35' E 012°14'0 0.0
2017-Aug-06 10:59N 66°35' E 012°14'0 0.0
2017-Aug-06 10:28N 66°35' E 012°14'0 0.0
2017-Aug-06 09:59N 66°35' E 012°14'0 0.0
2017-Aug-06 09:29N 66°35' E 012°14'0 0.0
2017-Aug-06 08:59N 66°35' E 012°14'0 0.0
2017-Aug-06 08:29N 66°35' E 012°14'0 0.0
2017-Aug-06 07:59N 66°35' E 012°14'0 0.0
2017-Aug-06 07:29N 66°35' E 012°14'0 0.0
2017-Aug-06 06:59N 66°35' E 012°14'0 0.0
2017-Aug-06 06:29N 66°35' E 012°14'0 0.0
2017-Aug-06 05:59N 66°35' E 012°14'0 0.0
2017-Aug-06 05:29N 66°35' E 012°14'0 0.0
2017-Aug-06 04:59N 66°35' E 012°14'0 0.0
2017-Aug-06 04:29N 66°35' E 012°14'0 0.0
2017-Aug-06 03:59N 66°35' E 012°14'0 0.0
2017-Aug-06 03:29N 66°35' E 012°14'0 0.0
2017-Aug-06 02:59N 66°35' E 012°14'0 0.0
2017-Aug-06 02:29N 66°35' E 012°14'0 0.0
2017-Aug-06 01:59N 66°35' E 012°14'0 0.0
2017-Aug-06 01:29N 66°35' E 012°14'0 0.0
2017-Aug-06 00:59N 66°35' E 012°14'0 0.0
2017-Aug-06 00:29N 66°35' E 012°14'0 0.0
2017-Aug-05 23:59N 66°35' E 012°14'0 0.0
2017-Aug-05 23:29N 66°35' E 012°14'0 0.0
2017-Aug-05 22:58N 66°35' E 012°14'0 0.0
2017-Aug-05 22:28N 66°35' E 012°14'0 0.0
2017-Aug-05 21:58N 66°35' E 012°14'0 0.0
2017-Aug-05 21:28N 66°35' E 012°14'0 0.0
2017-Aug-05 20:58N 66°35' E 012°14'0 0.0
2017-Aug-05 20:28N 66°35' E 012°14'0 0.0
2017-Aug-05 19:58N 66°35' E 012°14'0 0.0
2017-Aug-05 19:28N 66°35' E 012°14'0 0.0
2017-Aug-05 18:58N 66°35' E 012°14'0 0.0
2017-Aug-05 18:28N 66°35' E 012°14'0 0.0
2017-Aug-05 17:58N 66°35' E 012°14'0 0.0
2017-Aug-05 17:28N 66°35' E 012°14'0 0.0
2017-Aug-05 16:58N 66°35' E 012°14'0 0.0
2017-Aug-05 16:28N 66°35' E 012°14'0 0.0
2017-Aug-05 15:58N 66°35' E 012°14'0 0.0
2017-Aug-05 15:28N 66°35' E 012°14'0 0.0
2017-Aug-05 14:58N 66°35' E 012°14'0 0.9
2017-Aug-05 14:30N 66°35' E 012°14'4 7.8
2017-Aug-05 14:00N 66°34' E 012°24'4 7.9
2017-Aug-05 13:30N 66°34' E 012°34'1 2.5
2017-Aug-05 12:58N 66°34' E 012°37'1 1.8
2017-Aug-05 12:29N 66°34' E 012°35'4 7.9
2017-Aug-05 12:00N 66°34' E 012°26'0 0.7
2017-Aug-05 11:30N 66°34' E 012°25'2 4.8
2017-Aug-05 11:00N 66°36' E 012°25'0 0.1
2017-Aug-05 10:30N 66°36' E 012°25'2 4.8
2017-Aug-05 10:00N 66°38' E 012°21'1 3.0
2017-Aug-05 09:30N 66°39' E 012°18'0 0.6
2017-Aug-05 08:58N 66°39' E 012°18'5 1.0
2017-Aug-05 04:21N 66°36' E 012°10'2 4.2
2017-Aug-05 03:59N 66°35' E 012°14'0 0.0
2017-Aug-05 03:29N 66°35' E 012°14'0 0.0
2017-Aug-05 02:59N 66°35' E 012°14'0 0.0
2017-Aug-05 02:29N 66°35' E 012°14'0 0.0
2017-Aug-05 01:59N 66°35' E 012°14'0 0.0
2017-Aug-05 01:29N 66°35' E 012°14'0 0.0
2017-Aug-05 00:59N 66°35' E 012°14'0 0.0
2017-Aug-05 00:29N 66°35' E 012°14'0 0.0
2017-Aug-04 23:57N 66°35' E 012°14'0 0.0
2017-Aug-04 23:30N 66°35' E 012°14'0 0.0
2017-Aug-04 23:00N 66°35' E 012°14'0 0.0
2017-Aug-04 22:30N 66°35' E 012°14'0 0.0
2017-Aug-04 22:00N 66°35' E 012°14'0 0.0
2017-Aug-04 21:30N 66°35' E 012°14'0 0.0
2017-Aug-04 21:00N 66°35' E 012°14'0 0.0
2017-Aug-04 20:30N 66°35' E 012°14'0 0.0
2017-Aug-04 20:00N 66°35' E 012°14'1 1.6
2017-Aug-04 19:30N 66°36' E 012°12'1 0.4
2017-Aug-04 17:10N 66°36' E 012°11'1 7.8
2017-Aug-04 16:59N 66°35' E 012°13'0 0.7
2017-Aug-04 16:29N 66°35' E 012°14'0 0.0
2017-Aug-04 15:59N 66°35' E 012°14'0 0.0
2017-Aug-04 15:29N 66°35' E 012°14'0 0.0
2017-Aug-04 14:59N 66°35' E 012°14'0 0.0
2017-Aug-04 13:59N 66°35' E 012°14'0 0.0
2017-Aug-04 13:29N 66°35' E 012°14'0 0.0
2017-Aug-04 12:59N 66°35' E 012°14'0 0.0
2017-Aug-04 12:29N 66°35' E 012°14'0 0.0
2017-Aug-04 11:59N 66°35' E 012°14'0 0.0
2017-Aug-04 11:29N 66°35' E 012°14'0 0.0
2017-Aug-04 10:59N 66°35' E 012°14'0 0.0
2017-Aug-04 10:29N 66°35' E 012°14'0 0.0
2017-Aug-04 10:00N 66°35' E 012°14'0 0.0
2017-Aug-04 09:30N 66°35' E 012°14'0 0.0
2017-Aug-04 09:00N 66°35' E 012°14'0 0.2
2017-Aug-04 08:30N 66°35' E 012°13'2 0.6
2017-Aug-04 05:20N 66°37' E 012°11'2 5.2
2017-Aug-04 05:00N 66°35' E 012°14'0 0.0
2017-Aug-04 04:30N 66°35' E 012°14'0 0.0
2017-Aug-04 04:00N 66°35' E 012°14'0 0.0
2017-Aug-04 03:30N 66°35' E 012°14'0 0.0
2017-Aug-04 03:00N 66°35' E 012°14'0 0.0
2017-Aug-04 02:30N 66°35' E 012°14'  

Dump ship's entire track history